Time;durP1;ratioP1;P1;durP2;ratioP2;P2;SDS_P1;SDS_P2;PMS_P1;PMS_P2;Temp;Humidity;BMP_temperature;BMP_pressure;BME280_temperature;BME280_humidity;BME280_pressure;Samples;Min_cycle;Max_cycle;Signal;HPM_P1;HPM_P2
2022/07/31 00:00:38;;;;;;;6.10;3.40;;;;;;;;;;5030625;28;20613;-53
2022/07/31 00:03:04;;;;;;;4.07;3.77;;;;;;;;;;5022196;28;20226;-54
2022/07/31 00:05:30;;;;;;;4.60;4.20;;;;;;;;;;5009767;28;20159;-54
2022/07/31 00:07:57;;;;;;;4.33;3.90;;;;;;;;;;5029162;28;20264;-54
2022/07/31 00:10:23;;;;;;;3.77;3.57;;;;;;;;;;5025605;28;20565;-53
2022/07/31 00:12:49;;;;;;;4.23;3.93;;;;;;;;;;5028807;28;20183;-53
2022/07/31 00:15:15;;;;;;;3.97;3.67;;;;;;;;;;5024789;28;20236;-54
2022/07/31 00:17:42;;;;;;;4.10;3.80;;;;;;;;;;5018138;28;20222;-54
2022/07/31 00:20:12;;;;;;;4.57;4.23;;;;;;;;;;5020294;28;20205;-54
2022/07/31 00:22:38;;;;;;;4.23;3.93;;;;;;;;;;5019994;28;20221;-54
2022/07/31 00:25:04;;;;;;;3.77;3.47;;;;;;;;;;5008386;28;20254;-54
2022/07/31 00:27:31;;;;;;;3.97;3.67;;;;;;;;;;5017497;28;20808;-54
2022/07/31 00:29:57;;;;;;;4.17;3.87;;;;;;;;;;5008972;28;20569;-53
2022/07/31 00:32:23;;;;;;;4.17;3.87;;;;;;;;;;5003114;28;20183;-53
2022/07/31 00:34:49;;;;;;;4.17;3.87;;;;;;;;;;5012195;28;20193;-53
2022/07/31 00:37:15;;;;;;;4.50;4.20;;;;;;;;;;5005095;28;20652;-53
2022/07/31 00:39:41;;;;;;;4.00;3.70;;;;;;;;;;5018039;28;20691;-53
2022/07/31 00:42:17;;;;;;;3.63;3.43;;;;;;;;;;5021760;28;20179;-54
2022/07/31 00:44:43;;;;;;;3.63;3.43;;;;;;;;;;5023063;28;20692;-53
2022/07/31 00:47:10;;;;;;;4.40;4.10;;;;;;;;;;5023409;28;20206;-53
2022/07/31 00:49:36;;;;;;;4.20;3.73;;;;;;;;;;5004555;28;20564;-54
2022/07/31 00:52:02;;;;;;;3.60;3.40;;;;;;;;;;5023801;28;20182;-54
2022/07/31 00:54:28;;;;;;;3.73;3.50;;;;;;;;;;5023004;28;20177;-54
2022/07/31 00:56:54;;;;;;;3.77;3.53;;;;;;;;;;5023352;28;20172;-53
2022/07/31 00:59:20;;;;;;;3.63;3.43;;;;;;;;;;5023203;28;20830;-54
2022/07/31 01:01:46;;;;;;;3.93;3.63;;;;;;;;;;5024473;28;20182;-54
2022/07/31 01:04:15;;;;;;;3.90;3.60;;;;;;;;;;5025309;28;20715;-54
2022/07/31 01:06:41;;;;;;;4.60;4.30;;;;;;;;;;5021580;28;20197;-55
2022/07/31 01:09:07;;;;;;;3.73;3.50;;;;;;;;;;5018292;28;20644;-54
2022/07/31 01:11:41;;;;;;;3.93;3.73;;;;;;;;;;5022465;28;20693;-53
2022/07/31 01:14:08;;;;;;;3.67;3.47;;;;;;;;;;5024747;28;20181;-54
2022/07/31 01:16:40;;;;;;;3.90;3.70;;;;;;;;;;5009909;28;20223;-54
2022/07/31 01:19:15;;;;;;;4.00;3.70;;;;;;;;;;5014218;28;20211;-54
2022/07/31 01:21:46;;;;;;;3.77;3.50;;;;;;;;;;5025978;28;20716;-54
2022/07/31 01:24:12;;;;;;;4.13;3.83;;;;;;;;;;5006720;28;20329;-54
2022/07/31 01:26:44;;;;;;;3.83;3.57;;;;;;;;;;5026538;28;20169;-53
2022/07/31 01:29:16;;;;;;;4.23;3.33;;;;;;;;;;5021404;28;20189;-54
2022/07/31 01:31:47;;;;;;;4.00;3.70;;;;;;;;;;5007237;28;20241;-54
2022/07/31 01:34:22;;;;;;;4.20;3.90;;;;;;;;;;4998344;28;20291;-54
2022/07/31 01:36:52;;;;;;;4.40;4.00;;;;;;;;;;5024132;28;20550;-54
2022/07/31 01:39:18;;;;;;;4.27;3.87;;;;;;;;;;5021650;28;20224;-54
2022/07/31 01:41:45;;;;;;;4.20;3.90;;;;;;;;;;5025272;28;20653;-54
2022/07/31 01:44:13;;;;;;;4.50;4.20;;;;;;;;;;5024044;28;20538;-55
2022/07/31 01:46:47;;;;;;;4.07;3.77;;;;;;;;;;5026790;28;20705;-54
2022/07/31 01:49:14;;;;;;;4.00;3.70;;;;;;;;;;5018504;28;20205;-54
2022/07/31 01:51:41;;;;;;;3.67;3.37;;;;;;;;;;5024809;28;20644;-54
2022/07/31 01:54:08;;;;;;;4.13;3.83;;;;;;;;;;5021107;28;20220;-54
2022/07/31 01:56:34;;;;;;;4.27;3.93;;;;;;;;;;5022810;28;20625;-54
2022/07/31 01:59:02;;;;;;;3.77;3.57;;;;;;;;;;5021093;28;20555;-54
2022/07/31 02:01:29;;;;;;;4.53;4.23;;;;;;;;;;5023656;28;20185;-53
2022/07/31 02:03:56;;;;;;;3.40;3.20;;;;;;;;;;5015081;28;20185;-54
2022/07/31 02:06:22;;;;;;;3.77;3.57;;;;;;;;;;5031076;28;20645;-54
2022/07/31 02:08:50;;;;;;;3.73;3.53;;;;;;;;;;5004626;28;20190;-53
2022/07/31 02:11:17;;;;;;;4.30;4.00;;;;;;;;;;5027215;28;20473;-54
2022/07/31 02:13:44;;;;;;;4.20;4.00;;;;;;;;;;5023680;28;20672;-54
2022/07/31 02:16:11;;;;;;;4.30;4.00;;;;;;;;;;5014719;28;20221;-54
2022/07/31 02:18:37;;;;;;;4.03;3.60;;;;;;;;;;5023484;28;20268;-54
2022/07/31 02:21:03;;;;;;;3.57;3.30;;;;;;;;;;5026687;28;20327;-54
2022/07/31 02:23:30;;;;;;;4.57;4.27;;;;;;;;;;5021441;28;20178;-54
2022/07/31 02:25:56;;;;;;;4.00;3.70;;;;;;;;;;5008216;28;20185;-54
2022/07/31 02:28:24;;;;;;;4.17;3.77;;;;;;;;;;5023473;28;20668;-55
2022/07/31 02:30:51;;;;;;;4.50;4.00;;;;;;;;;;5024350;28;20578;-54
2022/07/31 02:33:21;;;;;;;4.07;3.77;;;;;;;;;;5021766;28;20186;-54
2022/07/31 02:35:48;;;;;;;4.43;3.80;;;;;;;;;;5025019;28;20186;-54
2022/07/31 02:38:14;;;;;;;4.50;4.10;;;;;;;;;;5025467;28;20498;-55
2022/07/31 02:40:41;;;;;;;4.30;4.00;;;;;;;;;;5030788;28;20239;-54
2022/07/31 02:43:10;;;;;;;4.40;4.07;;;;;;;;;;5008924;28;20245;-54
2022/07/31 02:45:37;;;;;;;4.63;4.30;;;;;;;;;;5034422;28;20670;-54
2022/07/31 02:48:03;;;;;;;4.43;4.13;;;;;;;;;;5029093;28;20193;-54
2022/07/31 02:50:30;;;;;;;4.50;4.20;;;;;;;;;;5011432;28;20210;-54
2022/07/31 02:53:02;;;;;;;5.40;4.33;;;;;;;;;;5027403;28;20631;-54
2022/07/31 02:55:28;;;;;;;4.90;4.50;;;;;;;;;;5029244;28;20188;-55
2022/07/31 02:57:54;;;;;;;4.50;4.20;;;;;;;;;;5028778;28;20602;-54
2022/07/31 03:00:25;;;;;;;4.83;4.50;;;;;;;;;;5028894;28;20189;-54
2022/07/31 03:02:55;;;;;;;4.50;4.20;;;;;;;;;;5025469;28;20188;-54
2022/07/31 03:05:21;;;;;;;4.63;4.30;;;;;;;;;;5029846;28;20191;-54
2022/07/31 03:07:47;;;;;;;5.13;4.73;;;;;;;;;;5010032;28;20280;-54
2022/07/31 03:10:13;;;;;;;4.97;4.57;;;;;;;;;;5037039;28;20244;-55
2022/07/31 03:12:40;;;;;;;4.57;4.17;;;;;;;;;;5017532;28;20244;-54
2022/07/31 03:15:08;;;;;;;4.53;4.23;;;;;;;;;;5030332;28;20631;-54
2022/07/31 03:17:36;;;;;;;4.83;4.43;;;;;;;;;;5035827;28;20240;-54
2022/07/31 03:20:03;;;;;;;3.90;3.70;;;;;;;;;;5023953;28;20745;-54
2022/07/31 03:22:29;;;;;;;4.13;3.83;;;;;;;;;;5037501;28;20660;-53
2022/07/31 03:24:56;;;;;;;5.07;4.67;;;;;;;;;;5028805;28;20212;-54
2022/07/31 03:27:22;;;;;;;4.27;4.00;;;;;;;;;;5030345;28;20657;-54
2022/07/31 03:29:48;;;;;;;4.63;4.33;;;;;;;;;;5025784;28;20209;-53
2022/07/31 03:32:14;;;;;;;9.60;9.10;;;;;;;;;;5036047;28;20560;-54
2022/07/31 03:34:40;;;;;;;4.50;4.13;;;;;;;;;;5029767;28;20176;-54
2022/07/31 03:37:07;;;;;;;6.93;6.53;;;;;;;;;;5012677;28;20215;-53
2022/07/31 03:39:33;;;;;;;4.93;4.43;;;;;;;;;;5011454;28;20695;-54
2022/07/31 03:42:00;;;;;;;4.40;4.10;;;;;;;;;;5022516;28;20240;-54
2022/07/31 03:44:27;;;;;;;4.83;4.53;;;;;;;;;;5012002;28;20181;-53
2022/07/31 03:46:54;;;;;;;4.83;4.20;;;;;;;;;;5032148;28;20190;-53
2022/07/31 03:49:21;;;;;;;4.80;4.50;;;;;;;;;;5014124;28;20610;-53
2022/07/31 03:51:47;;;;;;;4.33;4.03;;;;;;;;;;5045163;28;20244;-53
2022/07/31 03:54:13;;;;;;;4.60;4.23;;;;;;;;;;5025967;28;20595;-54
2022/07/31 03:56:40;;;;;;;5.00;4.60;;;;;;;;;;5029707;28;20652;-54
2022/07/31 03:59:06;;;;;;;4.67;4.37;;;;;;;;;;5028839;28;20185;-53
2022/07/31 04:01:33;;;;;;;4.70;4.30;;;;;;;;;;5032333;28;20628;-52
2022/07/31 04:04:00;;;;;;;4.43;4.13;;;;;;;;;;5027528;28;20621;-53
2022/07/31 04:06:26;;;;;;;5.13;4.63;;;;;;;;;;5030482;28;20200;-56
2022/07/31 04:08:52;;;;;;;4.60;4.30;;;;;;;;;;5028557;28;20189;-53
2022/07/31 04:11:18;;;;;;;5.67;4.17;;;;;;;;;;5030028;28;20191;-53
2022/07/31 04:13:44;;;;;;;4.73;4.37;;;;;;;;;;5027370;28;20637;-53
2022/07/31 04:16:10;;;;;;;4.70;4.40;;;;;;;;;;5029901;28;20634;-54
2022/07/31 04:18:36;;;;;;;4.70;4.40;;;;;;;;;;5020663;28;20625;-53
2022/07/31 04:21:02;;;;;;;4.53;4.27;;;;;;;;;;5029174;28;20205;-53
2022/07/31 04:23:28;;;;;;;4.47;4.17;;;;;;;;;;5026396;28;20262;-53
2022/07/31 04:25:54;;;;;;;4.50;4.20;;;;;;;;;;5010079;28;20189;-54
2022/07/31 04:28:20;;;;;;;4.33;4.03;;;;;;;;;;5024382;28;20193;-53
2022/07/31 04:30:46;;;;;;;4.10;3.77;;;;;;;;;;5030259;28;20219;-53
2022/07/31 04:33:13;;;;;;;9.50;9.00;;;;;;;;;;5032309;28;20181;-53
2022/07/31 04:35:40;;;;;;;4.40;4.00;;;;;;;;;;5029241;28;20239;-53
2022/07/31 04:38:07;;;;;;;4.80;4.10;;;;;;;;;;5010560;28;20170;-54
2022/07/31 04:40:33;;;;;;;4.97;4.67;;;;;;;;;;5011594;28;20174;-53
2022/07/31 04:42:59;;;;;;;4.70;4.40;;;;;;;;;;5034161;28;20185;-53
2022/07/31 04:45:25;;;;;;;4.33;4.03;;;;;;;;;;5027567;28;20291;-54
2022/07/31 04:47:51;;;;;;;4.53;4.17;;;;;;;;;;5028455;28;20189;-53
2022/07/31 04:50:17;;;;;;;4.30;4.00;;;;;;;;;;5028797;28;20675;-53
2022/07/31 04:52:43;;;;;;;5.73;4.80;;;;;;;;;;5027336;28;20224;-53
2022/07/31 04:55:09;;;;;;;4.27;3.87;;;;;;;;;;5027393;28;20824;-53
2022/07/31 04:57:35;;;;;;;4.23;3.93;;;;;;;;;;5023837;28;20658;-53
2022/07/31 05:00:02;;;;;;;4.90;4.43;;;;;;;;;;5031749;28;20551;-53
2022/07/31 05:02:28;;;;;;;4.30;3.90;;;;;;;;;;5025177;28;20554;-52
2022/07/31 05:04:54;;;;;;;4.30;4.00;;;;;;;;;;5028405;28;20193;-53
2022/07/31 05:07:21;;;;;;;4.50;4.20;;;;;;;;;;5023741;28;20187;-53
2022/07/31 05:09:54;;;;;;;4.30;4.00;;;;;;;;;;5010056;28;20768;-53
2022/07/31 05:12:20;;;;;;;5.13;4.73;;;;;;;;;;5025087;28;20180;-53
2022/07/31 05:14:47;;;;;;;4.67;3.77;;;;;;;;;;5025553;28;20259;-54
2022/07/31 05:17:13;;;;;;;5.07;3.77;;;;;;;;;;5024783;28;20301;-53
2022/07/31 05:19:39;;;;;;;4.40;4.00;;;;;;;;;;5027847;28;20701;-53
2022/07/31 05:22:23;;;;;;;4.33;4.03;;;;;;;;;;4796308;27;8232289;-53
2022/07/31 05:24:49;;;;;;;4.77;4.47;;;;;;;;;;5067936;28;20262;-52
2022/07/31 05:27:15;;;;;;;4.23;3.93;;;;;;;;;;5083358;28;20640;-52
2022/07/31 05:29:41;;;;;;;4.17;3.87;;;;;;;;;;5062244;28;20666;-53
2022/07/31 05:32:07;;;;;;;4.17;3.87;;;;;;;;;;5080215;28;20225;-53
2022/07/31 05:34:33;;;;;;;6.67;4.43;;;;;;;;;;5064106;28;20190;-54
2022/07/31 05:37:00;;;;;;;4.80;4.40;;;;;;;;;;5095236;28;20168;-53
2022/07/31 05:39:27;;;;;;;4.10;3.80;;;;;;;;;;5081196;28;20175;-54
2022/07/31 05:41:53;;;;;;;4.83;4.53;;;;;;;;;;5081411;28;20194;-54
2022/07/31 05:44:19;;;;;;;4.77;4.37;;;;;;;;;;5067011;28;20173;-54
2022/07/31 05:46:45;;;;;;;4.73;4.33;;;;;;;;;;5063816;28;20592;-54
2022/07/31 05:49:11;;;;;;;4.43;4.13;;;;;;;;;;5082457;28;20600;-54
2022/07/31 05:51:37;;;;;;;5.07;4.60;;;;;;;;;;5084997;28;20498;-54
2022/07/31 05:54:03;;;;;;;4.43;4.13;;;;;;;;;;5076200;28;20663;-54
2022/07/31 05:56:29;;;;;;;4.57;4.17;;;;;;;;;;5082768;28;20629;-54
2022/07/31 05:58:55;;;;;;;4.53;4.20;;;;;;;;;;5055356;28;20198;-54
2022/07/31 06:01:21;;;;;;;4.23;3.93;;;;;;;;;;5076619;28;20208;-53
2022/07/31 06:03:47;;;;;;;4.17;3.83;;;;;;;;;;5080472;28;20182;-54
2022/07/31 06:06:13;;;;;;;5.00;4.60;;;;;;;;;;5080979;28;20182;-54
2022/07/31 06:08:39;;;;;;;6.30;4.70;;;;;;;;;;5082358;28;20166;-54
2022/07/31 06:11:05;;;;;;;5.00;4.60;;;;;;;;;;5078294;28;20325;-54
2022/07/31 06:13:32;;;;;;;4.43;4.03;;;;;;;;;;5078261;28;20182;-54
2022/07/31 06:15:58;;;;;;;4.60;4.20;;;;;;;;;;5082946;28;20229;-54
2022/07/31 06:18:24;;;;;;;4.70;4.30;;;;;;;;;;5084650;28;20217;-54
2022/07/31 06:20:50;;;;;;;4.33;4.03;;;;;;;;;;5097895;27;20238;-53
2022/07/31 06:23:16;;;;;;;4.53;4.13;;;;;;;;;;5097711;28;20177;-54
2022/07/31 06:25:42;;;;;;;5.40;5.00;;;;;;;;;;5105190;28;20162;-54
2022/07/31 06:28:08;;;;;;;4.43;4.13;;;;;;;;;;5092433;28;20301;-54
2022/07/31 06:30:35;;;;;;;4.60;4.30;;;;;;;;;;5103922;28;20185;-54
2022/07/31 06:33:01;;;;;;;5.03;4.63;;;;;;;;;;5089810;28;21640;-54
2022/07/31 06:35:27;;;;;;;4.47;4.10;;;;;;;;;;5085819;28;20186;-54
2022/07/31 06:37:53;;;;;;;4.47;4.07;;;;;;;;;;5087012;28;20637;-54
2022/07/31 06:40:19;;;;;;;5.87;5.23;;;;;;;;;;5089817;28;20214;-54
2022/07/31 06:42:46;;;;;;;5.30;4.73;;;;;;;;;;5064403;28;20189;-54
2022/07/31 06:45:13;;;;;;;5.23;4.80;;;;;;;;;;5086973;28;20288;-54
2022/07/31 06:47:39;;;;;;;8.00;4.37;;;;;;;;;;5080197;28;20172;-55
2022/07/31 06:50:08;;;;;;;4.87;4.30;;;;;;;;;;5090019;28;20650;-55
2022/07/31 06:52:35;;;;;;;12.80;4.60;;;;;;;;;;5072578;28;20185;-56
2022/07/31 06:55:02;;;;;;;5.17;4.30;;;;;;;;;;5090122;28;20185;-56
2022/07/31 06:57:28;;;;;;;4.50;4.20;;;;;;;;;;5096896;28;20186;-57
2022/07/31 06:59:54;;;;;;;5.30;4.33;;;;;;;;;;5090245;28;20183;-55
2022/07/31 07:02:20;;;;;;;4.83;4.40;;;;;;;;;;5084607;28;20233;-55
2022/07/31 07:04:47;;;;;;;4.83;4.43;;;;;;;;;;5091559;28;20214;-56
2022/07/31 07:07:13;;;;;;;4.37;3.97;;;;;;;;;;5089511;28;20237;-56
2022/07/31 07:09:39;;;;;;;4.93;4.57;;;;;;;;;;5092122;28;20231;-54
2022/07/31 07:12:05;;;;;;;5.27;4.47;;;;;;;;;;5086652;28;20180;-56
2022/07/31 07:14:31;;;;;;;4.63;4.23;;;;;;;;;;5076506;28;20204;-56
2022/07/31 07:16:57;;;;;;;4.50;4.03;;;;;;;;;;5086621;28;20187;-57
2022/07/31 07:19:23;;;;;;;4.63;4.10;;;;;;;;;;5084925;28;20172;-55
2022/07/31 07:21:49;;;;;;;6.83;4.53;;;;;;;;;;5105471;27;21438;-55
2022/07/31 07:24:16;;;;;;;4.80;4.00;;;;;;;;;;5086997;28;20180;-57
2022/07/31 07:26:42;;;;;;;4.53;4.20;;;;;;;;;;5099127;28;20653;-57
2022/07/31 07:29:09;;;;;;;5.10;4.77;;;;;;;;;;5082111;28;20264;-56
2022/07/31 07:31:36;;;;;;;4.83;4.27;;;;;;;;;;5065415;28;20181;-55
2022/07/31 07:34:04;;;;;;;5.15;4.75;;;;;;;;;;5064141;28;20809;-56
2022/07/31 07:36:30;;;;;;;6.07;4.27;;;;;;;;;;5087702;28;20223;-57
2022/07/31 07:38:57;;;;;;;4.70;4.30;;;;;;;;;;5087004;28;20563;-57
2022/07/31 07:41:24;;;;;;;8.87;4.70;;;;;;;;;;5086002;28;20207;-56
2022/07/31 07:43:50;;;;;;;6.73;3.97;;;;;;;;;;5075181;28;20176;-57
2022/07/31 07:46:16;;;;;;;4.87;4.27;;;;;;;;;;5086028;28;20538;-55
2022/07/31 07:48:42;;;;;;;4.43;3.73;;;;;;;;;;5081118;28;20177;-57
2022/07/31 07:51:08;;;;;;;8.27;4.13;;;;;;;;;;5080725;28;20180;-56
2022/07/31 07:53:35;;;;;;;5.27;3.90;;;;;;;;;;5088610;28;20194;-55
2022/07/31 07:56:01;;;;;;;4.53;3.77;;;;;;;;;;5058466;28;20180;-55
2022/07/31 07:58:31;;;;;;;5.43;3.87;;;;;;;;;;5081009;28;20592;-55
2022/07/31 08:00:57;;;;;;;4.77;3.57;;;;;;;;;;5085735;28;20278;-56
2022/07/31 08:03:23;;;;;;;4.40;3.90;;;;;;;;;;5102259;28;20175;-56
2022/07/31 08:05:49;;;;;;;4.60;3.77;;;;;;;;;;5078947;28;20690;-55
2022/07/31 08:08:15;;;;;;;4.20;3.53;;;;;;;;;;5085335;28;20275;-56
2022/07/31 08:10:42;;;;;;;4.03;3.57;;;;;;;;;;5086540;28;20187;-55
2022/07/31 08:13:08;;;;;;;6.87;3.87;;;;;;;;;;5081892;28;20190;-56
2022/07/31 08:15:34;;;;;;;4.90;4.30;;;;;;;;;;5086465;28;20657;-55
2022/07/31 08:18:00;;;;;;;4.17;3.87;;;;;;;;;;5086241;28;20306;-55
2022/07/31 08:20:26;;;;;;;3.83;3.60;;;;;;;;;;5088904;28;20731;-55
2022/07/31 08:22:52;;;;;;;3.77;3.50;;;;;;;;;;5076936;28;20189;-55
2022/07/31 08:25:18;;;;;;;3.43;3.17;;;;;;;;;;5081846;28;20582;-56
2022/07/31 08:27:45;;;;;;;6.00;3.93;;;;;;;;;;5061002;28;20187;-55
2022/07/31 08:30:11;;;;;;;3.50;3.20;;;;;;;;;;5061535;28;20243;-56
2022/07/31 08:32:37;;;;;;;4.33;3.93;;;;;;;;;;5067710;28;20179;-56
2022/07/31 08:35:03;;;;;;;4.20;3.80;;;;;;;;;;5085711;28;20227;-56
2022/07/31 08:37:29;;;;;;;3.70;3.00;;;;;;;;;;5081508;28;20200;-55
2022/07/31 08:39:56;;;;;;;3.57;3.37;;;;;;;;;;5068425;28;20655;-56
2022/07/31 08:42:22;;;;;;;3.80;3.50;;;;;;;;;;5095560;28;20224;-56
2022/07/31 08:44:48;;;;;;;4.97;4.47;;;;;;;;;;5085692;28;20184;-55
2022/07/31 08:47:15;;;;;;;3.90;3.60;;;;;;;;;;5086086;28;20454;-56
2022/07/31 08:49:45;;;;;;;3.50;3.30;;;;;;;;;;5083136;28;20250;-55
2022/07/31 08:52:16;;;;;;;3.73;3.43;;;;;;;;;;5066988;28;20545;-56
2022/07/31 08:54:43;;;;;;;4.20;3.90;;;;;;;;;;5090015;28;20185;-55
2022/07/31 08:57:09;;;;;;;4.17;3.63;;;;;;;;;;5079787;28;20189;-57
2022/07/31 08:59:36;;;;;;;4.10;3.80;;;;;;;;;;5078343;28;20274;-55
2022/07/31 09:02:03;;;;;;;3.70;3.40;;;;;;;;;;5086495;28;20256;-55
2022/07/31 09:04:30;;;;;;;3.43;3.13;;;;;;;;;;5067719;28;20188;-55
2022/07/31 09:06:59;;;;;;;4.07;3.67;;;;;;;;;;5080195;28;20633;-57
2022/07/31 09:09:26;;;;;;;4.10;3.80;;;;;;;;;;5065045;28;20212;-55
2022/07/31 09:11:53;;;;;;;3.97;3.57;;;;;;;;;;5084619;28;20537;-55
2022/07/31 09:14:30;;;;;;;3.70;3.50;;;;;;;;;;5081607;28;20190;-55
2022/07/31 09:16:56;;;;;;;3.77;3.47;;;;;;;;;;5083623;28;20185;-56
2022/07/31 09:19:23;;;;;;;4.37;4.13;;;;;;;;;;5078087;28;20190;-56
2022/07/31 09:21:51;;;;;;;4.63;4.33;;;;;;;;;;5074725;28;20241;-56
2022/07/31 09:24:33;;;;;;;3.37;3.17;;;;;;;;;;5077449;28;20680;-55
2022/07/31 09:27:09;;;;;;;4.10;3.70;;;;;;;;;;5081478;28;20182;-55
2022/07/31 09:29:43;;;;;;;3.90;3.60;;;;;;;;;;5060684;28;20191;-55
2022/07/31 09:32:17;;;;;;;3.70;3.40;;;;;;;;;;5080467;28;20186;-55
2022/07/31 09:34:43;;;;;;;4.00;3.70;;;;;;;;;;5085312;28;20187;-54
2022/07/31 09:37:11;;;;;;;3.33;3.10;;;;;;;;;;5088485;28;20235;-55
2022/07/31 09:39:37;;;;;;;3.57;3.27;;;;;;;;;;5083065;28;20187;-55
2022/07/31 09:42:04;;;;;;;3.50;3.20;;;;;;;;;;5063610;28;20199;-54
2022/07/31 09:44:44;;;;;;;3.63;3.23;;;;;;;;;;5058103;28;20548;-56
2022/07/31 09:47:25;;;;;;;3.20;2.90;;;;;;;;;;5075211;28;20724;-57
2022/07/31 09:49:53;;;;;;;4.33;3.23;;;;;;;;;;5078903;28;20253;-55
2022/07/31 09:52:19;;;;;;;4.20;3.80;;;;;;;;;;5084713;28;20201;-55
2022/07/31 09:54:46;;;;;;;4.70;3.80;;;;;;;;;;5083232;28;20178;-56
2022/07/31 09:57:13;;;;;;;3.50;3.30;;;;;;;;;;5085118;28;20490;-56
2022/07/31 09:59:39;;;;;;;3.43;3.13;;;;;;;;;;5084507;28;20368;-57
2022/07/31 10:02:08;;;;;;;3.20;2.90;;;;;;;;;;5069142;28;20666;-56
2022/07/31 10:04:38;;;;;;;3.07;2.87;;;;;;;;;;5075153;28;20343;-56
2022/07/31 10:07:04;;;;;;;3.97;3.63;;;;;;;;;;5082934;28;20533;-55
2022/07/31 10:09:32;;;;;;;3.30;3.07;;;;;;;;;;5085655;28;20263;-56
2022/07/31 10:11:58;;;;;;;3.63;3.43;;;;;;;;;;5069580;28;20180;-57
2022/07/31 10:14:30;;;;;;;3.57;3.37;;;;;;;;;;5104863;28;20179;-58
2022/07/31 10:16:58;;;;;;;3.60;3.30;;;;;;;;;;5099769;28;20620;-56
2022/07/31 10:19:26;;;;;;;3.60;3.30;;;;;;;;;;5089889;28;20249;-56
2022/07/31 10:22:05;;;;;;;3.33;3.13;;;;;;;;;;5103064;27;20224;-56
2022/07/31 10:24:33;;;;;;;3.50;3.30;;;;;;;;;;5071975;28;20340;-56
2022/07/31 10:26:59;;;;;;;3.33;3.13;;;;;;;;;;5071192;28;20688;-57
2022/07/31 10:29:30;;;;;;;3.37;3.17;;;;;;;;;;5068681;28;20226;-56
2022/07/31 10:32:00;;;;;;;4.10;3.80;;;;;;;;;;5065940;28;20192;-57
2022/07/31 10:34:26;;;;;;;3.40;3.20;;;;;;;;;;5089696;28;20192;-56
2022/07/31 10:36:57;;;;;;;3.40;3.20;;;;;;;;;;5076297;28;20188;-54
2022/07/31 10:39:41;;;;;;;3.90;3.60;;;;;;;;;;5068881;28;20187;-56
2022/07/31 10:42:12;;;;;;;4.03;3.63;;;;;;;;;;5083084;28;20216;-54
2022/07/31 10:44:40;;;;;;;3.93;3.30;;;;;;;;;;5092180;28;20184;-55
2022/07/31 10:47:13;;;;;;;3.37;3.17;;;;;;;;;;5087843;28;20191;-54
2022/07/31 10:49:43;;;;;;;3.80;3.60;;;;;;;;;;5089816;28;20184;-55
2022/07/31 10:52:09;;;;;;;4.27;3.87;;;;;;;;;;5081692;28;20419;-56
2022/07/31 10:54:40;;;;;;;3.30;3.10;;;;;;;;;;5043794;28;20246;-55
2022/07/31 10:57:09;;;;;;;3.03;2.83;;;;;;;;;;5079002;28;20764;-56
2022/07/31 10:59:35;;;;;;;3.73;3.43;;;;;;;;;;5060195;28;20745;-54
2022/07/31 11:02:01;;;;;;;3.53;3.23;;;;;;;;;;5070375;28;20283;-55
2022/07/31 11:04:30;;;;;;;3.63;3.40;;;;;;;;;;5069816;28;20187;-55
2022/07/31 11:06:57;;;;;;;4.43;3.20;;;;;;;;;;5072935;28;20184;-56
2022/07/31 11:09:24;;;;;;;3.50;3.20;;;;;;;;;;5054399;28;20176;-55
2022/07/31 11:11:51;;;;;;;3.30;3.10;;;;;;;;;;5086808;28;20270;-56
2022/07/31 11:14:17;;;;;;;3.53;3.23;;;;;;;;;;5073775;28;20198;-57
2022/07/31 11:16:59;;;;;;;3.87;3.67;;;;;;;;;;5067209;28;20180;-56
2022/07/31 11:19:39;;;;;;;3.70;3.40;;;;;;;;;;5065118;28;20188;-55
2022/07/31 11:22:12;;;;;;;3.73;3.43;;;;;;;;;;5088724;28;20587;-55
2022/07/31 11:24:38;;;;;;;3.77;3.57;;;;;;;;;;5088007;28;20171;-55
2022/07/31 11:27:10;;;;;;;3.80;3.50;;;;;;;;;;5089226;28;20280;-56
2022/07/31 11:29:37;;;;;;;4.43;3.77;;;;;;;;;;5066447;28;20806;-55
2022/07/31 11:32:17;;;;;;;3.80;3.50;;;;;;;;;;5085701;28;20191;-56
2022/07/31 11:34:50;;;;;;;3.70;3.40;;;;;;;;;;5065907;28;20309;-55
2022/07/31 11:37:22;;;;;;;3.20;3.00;;;;;;;;;;5083177;28;20948;-56
2022/07/31 11:39:48;;;;;;;4.20;3.80;;;;;;;;;;5085945;28;20592;-55
2022/07/31 11:42:15;;;;;;;3.63;3.43;;;;;;;;;;5084722;28;20673;-56
2022/07/31 11:44:41;;;;;;;3.40;3.20;;;;;;;;;;5087595;28;20164;-56
2022/07/31 11:47:07;;;;;;;4.70;3.70;;;;;;;;;;5063166;28;20184;-56
2022/07/31 11:49:35;;;;;;;3.83;3.40;;;;;;;;;;5085772;28;20180;-55
2022/07/31 11:52:02;;;;;;;3.60;3.40;;;;;;;;;;5104669;28;20855;-56
2022/07/31 11:54:28;;;;;;;3.50;3.20;;;;;;;;;;5083247;28;20192;-56
2022/07/31 11:56:55;;;;;;;4.13;3.73;;;;;;;;;;5089650;28;20200;-56
2022/07/31 11:59:30;;;;;;;4.30;3.80;;;;;;;;;;5084043;28;20295;-55
2022/07/31 12:02:09;;;;;;;3.47;3.17;;;;;;;;;;5083707;28;20200;-56
2022/07/31 12:04:36;;;;;;;3.93;3.50;;;;;;;;;;5068468;28;20164;-57
2022/07/31 12:07:08;;;;;;;3.70;3.40;;;;;;;;;;5083984;28;20188;-56
2022/07/31 12:09:35;;;;;;;3.70;3.50;;;;;;;;;;5044925;28;20192;-55
2022/07/31 12:12:02;;;;;;;3.67;3.37;;;;;;;;;;5082870;28;20188;-54
2022/07/31 12:14:32;;;;;;;3.90;3.60;;;;;;;;;;5084821;28;20180;-56
2022/07/31 12:16:59;;;;;;;4.00;3.70;;;;;;;;;;5080589;28;20195;-57
2022/07/31 12:19:26;;;;;;;3.47;3.17;;;;;;;;;;5090552;28;20694;-57
2022/07/31 12:21:53;;;;;;;4.13;3.73;;;;;;;;;;5084562;27;20224;-55
2022/07/31 12:24:19;;;;;;;4.10;3.90;;;;;;;;;;5082642;28;20665;-56
2022/07/31 12:26:58;;;;;;;3.67;3.40;;;;;;;;;;5087791;28;20629;-55
2022/07/31 12:29:34;;;;;;;3.80;3.50;;;;;;;;;;5047344;28;20793;-55
2022/07/31 12:32:00;;;;;;;4.37;4.07;;;;;;;;;;5085166;28;20540;-56
2022/07/31 12:34:26;;;;;;;4.10;3.80;;;;;;;;;;5081730;28;20207;-55
2022/07/31 12:37:12;;;;;;;4.00;3.70;;;;;;;;;;5083491;28;20192;-56
2022/07/31 12:39:50;;;;;;;3.50;3.27;;;;;;;;;;5086403;28;20731;-55
2022/07/31 12:42:23;;;;;;;3.70;3.40;;;;;;;;;;5064683;28;20749;-55
2022/07/31 12:44:53;;;;;;;3.80;3.60;;;;;;;;;;5086133;28;20183;-55
2022/07/31 12:47:23;;;;;;;3.87;3.47;;;;;;;;;;5079012;28;20311;-56
2022/07/31 12:49:50;;;;;;;4.03;3.73;;;;;;;;;;5086097;28;20642;-57
2022/07/31 12:52:16;;;;;;;4.73;4.37;;;;;;;;;;5064195;28;20215;-57
2022/07/31 12:54:42;;;;;;;4.00;3.70;;;;;;;;;;5089295;28;20183;-55
2022/07/31 12:57:12;;;;;;;3.47;3.27;;;;;;;;;;5084404;28;20206;-57
2022/07/31 12:59:44;;;;;;;3.83;3.53;;;;;;;;;;5065614;28;20282;-56
2022/07/31 13:02:11;;;;;;;4.17;3.80;;;;;;;;;;5078391;28;20200;-56
2022/07/31 13:04:40;;;;;;;3.47;3.27;;;;;;;;;;5061664;28;20189;-55
2022/07/31 13:07:09;;;;;;;3.60;3.40;;;;;;;;;;5062128;28;20195;-56
2022/07/31 13:09:35;;;;;;;3.80;3.60;;;;;;;;;;5078520;28;20543;-56
2022/07/31 13:12:13;;;;;;;5.37;3.30;;;;;;;;;;5077794;28;20180;-55
2022/07/31 13:14:42;;;;;;;3.90;3.60;;;;;;;;;;5072816;28;20187;-56
2022/07/31 13:17:08;;;;;;;4.20;3.80;;;;;;;;;;5086543;28;20184;-57
2022/07/31 13:19:34;;;;;;;4.27;3.93;;;;;;;;;;5087629;28;20204;-56
2022/07/31 13:22:00;;;;;;;3.83;3.60;;;;;;;;;;5084566;28;20290;-57
2022/07/31 13:24:27;;;;;;;4.07;3.77;;;;;;;;;;5068665;28;20180;-56
2022/07/31 13:26:53;;;;;;;3.80;3.50;;;;;;;;;;5087554;28;20167;-55
2022/07/31 13:29:19;;;;;;;4.43;3.90;;;;;;;;;;5068762;28;20187;-56
2022/07/31 13:31:46;;;;;;;4.10;3.70;;;;;;;;;;5085112;28;20199;-56
2022/07/31 13:34:12;;;;;;;4.30;3.77;;;;;;;;;;5087125;28;20519;-56
2022/07/31 13:36:38;;;;;;;3.57;3.37;;;;;;;;;;5087403;28;20395;-55
2022/07/31 13:39:04;;;;;;;4.40;4.00;;;;;;;;;;5079768;28;20180;-57
2022/07/31 13:41:33;;;;;;;4.90;4.40;;;;;;;;;;5087371;28;20258;-56
2022/07/31 13:43:59;;;;;;;4.57;4.17;;;;;;;;;;5093014;28;20176;-56
2022/07/31 13:46:26;;;;;;;4.33;4.03;;;;;;;;;;5089393;28;20221;-56
2022/07/31 13:48:53;;;;;;;4.10;3.90;;;;;;;;;;5090312;28;20177;-55
2022/07/31 13:51:19;;;;;;;4.60;4.20;;;;;;;;;;5095278;28;20195;-56
2022/07/31 13:53:46;;;;;;;4.13;3.83;;;;;;;;;;5089831;28;20248;-56
2022/07/31 13:56:12;;;;;;;4.50;4.20;;;;;;;;;;5090391;28;20175;-54
2022/07/31 13:58:39;;;;;;;4.77;4.20;;;;;;;;;;5088773;28;20237;-56
2022/07/31 14:01:05;;;;;;;5.13;4.77;;;;;;;;;;5091229;28;20718;-56
2022/07/31 14:03:31;;;;;;;4.67;4.27;;;;;;;;;;5068856;28;20332;-56
2022/07/31 14:05:57;;;;;;;4.73;4.33;;;;;;;;;;5069655;28;20196;-56
2022/07/31 14:08:24;;;;;;;4.63;4.33;;;;;;;;;;5084416;28;20190;-55
2022/07/31 14:10:50;;;;;;;4.47;4.07;;;;;;;;;;5085981;28;20540;-56
2022/07/31 14:13:17;;;;;;;4.53;4.23;;;;;;;;;;5086339;28;20179;-55
2022/07/31 14:15:43;;;;;;;4.53;4.20;;;;;;;;;;5093109;28;20177;-55
2022/07/31 14:18:09;;;;;;;4.70;4.40;;;;;;;;;;5071013;28;20653;-56
2022/07/31 14:20:36;;;;;;;4.17;3.87;;;;;;;;;;5085857;28;20712;-57
2022/07/31 14:23:02;;;;;;;4.40;4.10;;;;;;;;;;5089631;27;20745;-56
2022/07/31 14:25:31;;;;;;;5.30;4.90;;;;;;;;;;5090154;28;20313;-55
2022/07/31 14:27:57;;;;;;;4.47;4.17;;;;;;;;;;5083145;28;20189;-55
2022/07/31 14:30:23;;;;;;;5.07;4.67;;;;;;;;;;5079474;28;20175;-55
2022/07/31 14:32:49;;;;;;;4.90;4.20;;;;;;;;;;5065950;28;20188;-55
2022/07/31 14:35:18;;;;;;;4.63;4.33;;;;;;;;;;5083037;28;20634;-55
2022/07/31 14:37:46;;;;;;;4.17;3.73;;;;;;;;;;5080380;28;20823;-55
2022/07/31 14:40:13;;;;;;;5.67;4.10;;;;;;;;;;5090848;28;20172;-55
2022/07/31 14:42:40;;;;;;;4.50;4.20;;;;;;;;;;5087135;28;20184;-54
2022/07/31 14:45:06;;;;;;;4.50;4.20;;;;;;;;;;5073014;28;20183;-55